Pagina principale
METAR-TAF:

METAR-TAF

Aeroporti :

Aeroporto di Cefalonia

Cefalonia, Grecia

latitudine: 38-07N, longitudine: 020-30E, altezza: 19 m

Osservazione

Il bollettino è stato emesso 29 minuti fa, alle 20:20 UTC
Vento 7 kt da nord-ovest
Temperature 20°C
Umidità 56%
Pressione 1016 hPa
Visibilità 10 km o più
nessuna nube inferiore a 1500 m e nessun cumulonembo

METAR: LGKF 242020Z 32007KT CAVOK 20/11 Q1016

Ora: 23:49 (20:49 UTC)

Previsione

Il bollettino è stato emesso 49 minuti fa, alle 20:00 UTC
Previsione valida dal 24 alle 21 UTC al 25 alle 06 UTC
Vento 10 kt da nord-ovest
Visibilità 10 km o più
Poco nuvoloso ad un'altezza di 2000 ft
Evoluzione graduale
dal 24 alle 22 UTC al 24 alle 24 UTC
Vento 3 kt da direzioni variabili

TAF: LGKF 242000Z 2421/2506 32010KT 9999 FEW020 BECMG 2422/2424 VRB03KT

Osservazioni e previsioni meteorologiche di più di 4000 aeroporti (messaggi METAR e TAF).

Le stazioni disponibili sono rappresentate dai dischi gialli e rossi sulla carta.

Puntare il mouse per vedere il nome della stazione.

Clicca sopra per visualizzare le osservazioni e previsioni meteorologiche.

Per cambiare la mappa : fare clic sui pulsanti verdi con una croce nera per ingrandire, il pulsante verde con un trattino per diminuire, o sulla freccia verde per le mappe adiacenti.


METAR-TAF: